KTOA/TOA METAR and TAF weather

Enter ICAO airport designator
Station Type Date Time Source
KTOA METAR 2018/12/10 03:47 UTC NOAA

KTOA 100347Z 26005KT 10SM FEW200 15/10 A3018


Station Type Date Time Source
KTOA Decoded METAR 2018/12/10 03:47 UTC NOAA

Torrance, Zamperini Field Airport, CA, United States (KTOA) 33-48N 118-20W
Dec 09, 2018 - 10:47 PM EST / 2018.12.10 0347 UTC
Wind: from the W (260 degrees) at 6 MPH (5 KT):0
Visibility: 10 mile(s):0
Sky conditions: mostly clear
Temperature: 59 F (15 C)
Dew Point: 50 F (10 C)
Relative Humidity: 72%
Pressure (altimeter): 30.18 in. Hg (1022 hPa)
ob: KTOA 100347Z 26005KT 10SM FEW200 15/10 A3018
cycle: 4

Station Type Date Time Source
KTOA TAF UTC NOAA

Error!


Example: see airport list